sensor_id;sensor_type;location;lat;lon;timestamp;pressure;altitude;pressure_sealevel;temperature;humidity
66762;BME280;53672;48.176;16.338;2023-02-20T00:01:23;99956.91;;;4.77;100.00
66762;BME280;53672;48.176;16.338;2023-02-20T00:06:25;99944.81;;;4.75;100.00
66762;BME280;53672;48.176;16.338;2023-02-20T00:11:26;99960.47;;;4.71;100.00
66762;BME280;53672;48.176;16.338;2023-02-20T00:16:26;99965.44;;;4.68;100.00
66762;BME280;53672;48.176;16.338;2023-02-20T00:21:28;99970.19;;;4.66;100.00
66762;BME280;53672;48.176;16.338;2023-02-20T00:26:29;99968.56;;;4.65;100.00
66762;BME280;53672;48.176;16.338;2023-02-20T00:31:30;99970.97;;;4.66;100.00
66762;BME280;53672;48.176;16.338;2023-02-20T00:36:31;99952.97;;;4.62;98.64
66762;BME280;53672;48.176;16.338;2023-02-20T00:41:32;99965.13;;;4.57;99.85
66762;BME280;53672;48.176;16.338;2023-02-20T00:46:32;99979.28;;;4.58;100.00
66762;BME280;53672;48.176;16.338;2023-02-20T00:51:34;99969.66;;;4.57;100.00
66762;BME280;53672;48.176;16.338;2023-02-20T00:56:35;99965.50;;;4.61;100.00
66762;BME280;53672;48.176;16.338;2023-02-20T01:01:35;99969.44;;;4.58;100.00
66762;BME280;53672;48.176;16.338;2023-02-20T01:06:37;99958.53;;;4.60;100.00
66762;BME280;53672;48.176;16.338;2023-02-20T01:11:40;99963.28;;;4.58;100.00
66762;BME280;53672;48.176;16.338;2023-02-20T01:16:44;99964.09;;;4.58;99.98
66762;BME280;53672;48.176;16.338;2023-02-20T01:21:46;99953.78;;;4.62;98.25
66762;BME280;53672;48.176;16.338;2023-02-20T01:26:47;99958.69;;;4.65;98.54
66762;BME280;53672;48.176;16.338;2023-02-20T01:31:49;99961.56;;;4.64;98.02
66762;BME280;53672;48.176;16.338;2023-02-20T01:36:53;99971.44;;;4.63;96.28
66762;BME280;53672;48.176;16.338;2023-02-20T01:41:57;99974.53;;;4.60;96.26
66762;BME280;53672;48.176;16.338;2023-02-20T01:46:58;99964.09;;;4.58;97.41
66762;BME280;53672;48.176;16.338;2023-02-20T01:52:04;99963.28;;;4.58;95.36
66762;BME280;53672;48.176;16.338;2023-02-20T01:57:08;99963.03;;;4.59;96.89
66762;BME280;53672;48.176;16.338;2023-02-20T02:02:12;99961.81;;;4.62;96.54
66762;BME280;53672;48.176;16.338;2023-02-20T02:07:14;99964.88;;;4.59;96.46
66762;BME280;53672;48.176;16.338;2023-02-20T02:12:14;99960.59;;;4.58;96.54
66762;BME280;53672;48.176;16.338;2023-02-20T02:23:13;99954.22;;;4.59;97.20
66762;BME280;53672;48.176;16.338;2023-02-20T02:34:20;99949.94;;;4.58;97.51
66762;BME280;53672;48.176;16.338;2023-02-20T02:39:36;99961.19;;;4.60;94.53
66762;BME280;53672;48.176;16.338;2023-02-20T02:44:45;99960.97;;;4.62;94.91
66762;BME280;53672;48.176;16.338;2023-02-20T02:49:55;99960.75;;;4.63;95.20
66762;BME280;53672;48.176;16.338;2023-02-20T02:54:59;99955.91;;;4.53;94.58
66762;BME280;53672;48.176;16.338;2023-02-20T03:00:03;99965.50;;;4.61;96.40
66762;BME280;53672;48.176;16.338;2023-02-20T03:05:05;99973.72;;;4.59;98.99
66762;BME280;53672;48.176;16.338;2023-02-20T03:10:12;99973.16;;;4.33;100.00
66762;BME280;53672;48.176;16.338;2023-02-20T03:15:21;99957.84;;;4.22;100.00
66762;BME280;53672;48.176;16.338;2023-02-20T03:20:25;99971.06;;;4.17;100.00
66762;BME280;53672;48.176;16.338;2023-02-20T03:25:30;99977.41;;;4.16;100.00
66762;BME280;53672;48.176;16.338;2023-02-20T03:30:36;99957.44;;;4.00;100.00
66762;BME280;53672;48.176;16.338;2023-02-20T03:35:41;99971.59;;;4.00;100.00
66762;BME280;53672;48.176;16.338;2023-02-20T03:40:44;99973.13;;;3.90;100.00
66762;BME280;53672;48.176;16.338;2023-02-20T03:45:47;99967.88;;;3.70;100.00
66762;BME280;53672;48.176;16.338;2023-02-20T03:50:48;99971.31;;;3.52;100.00
66762;BME280;53672;48.176;16.338;2023-02-20T03:55:50;99965.47;;;3.31;100.00
66762;BME280;53672;48.176;16.338;2023-02-20T04:00:54;99979.81;;;3.30;100.00
66762;BME280;53672;48.176;16.338;2023-02-20T04:05:57;99972.91;;;3.16;100.00
66762;BME280;53672;48.176;16.338;2023-02-20T04:11:03;99964.91;;;3.16;100.00
66762;BME280;53672;48.176;16.338;2023-02-20T04:16:06;99951.59;;;3.16;100.00
66762;BME280;53672;48.176;16.338;2023-02-20T04:21:12;99945.06;;;3.18;100.00
66762;BME280;53672;48.176;16.338;2023-02-20T04:26:20;99942.00;;;3.15;100.00
66762;BME280;53672;48.176;16.338;2023-02-20T04:31:21;99921.47;;;3.15;100.00
66762;BME280;53672;48.176;16.338;2023-02-20T04:36:22;99909.41;;;3.13;100.00
66762;BME280;53672;48.176;16.338;2023-02-20T04:41:25;99921.09;;;3.18;100.00
66762;BME280;53672;48.176;16.338;2023-02-20T04:46:26;99921.34;;;3.03;100.00
66762;BME280;53672;48.176;16.338;2023-02-20T04:51:26;99942.22;;;3.06;100.00
66762;BME280;53672;48.176;16.338;2023-02-20T04:56:28;99942.03;;;3.08;100.00
66762;BME280;53672;48.176;16.338;2023-02-20T05:01:29;99936.91;;;3.06;100.00
66762;BME280;53672;48.176;16.338;2023-02-20T05:06:30;99948.78;;;3.11;100.00
66762;BME280;53672;48.176;16.338;2023-02-20T05:11:32;99934.66;;;3.03;100.00
66762;BME280;53672;48.176;16.338;2023-02-20T05:16:32;99923.22;;;2.96;100.00
66762;BME280;53672;48.176;16.338;2023-02-20T05:21:33;99915.69;;;2.87;100.00
66762;BME280;53672;48.176;16.338;2023-02-20T05:26:35;99922.84;;;2.86;100.00
66762;BME280;53672;48.176;16.338;2023-02-20T05:31:36;99917.34;;;2.81;100.00
66762;BME280;53672;48.176;16.338;2023-02-20T05:36:36;99908.72;;;2.86;100.00
66762;BME280;53672;48.176;16.338;2023-02-20T05:41:38;99920.78;;;2.88;100.00
66762;BME280;53672;48.176;16.338;2023-02-20T05:46:39;99926.34;;;2.87;100.00
66762;BME280;53672;48.176;16.338;2023-02-20T05:51:40;99931.44;;;2.88;100.00
66762;BME280;53672;48.176;16.338;2023-02-20T05:56:43;99943.50;;;2.97;100.00
66762;BME280;53672;48.176;16.338;2023-02-20T06:01:44;99939.38;;;3.01;100.00
66762;BME280;53672;48.176;16.338;2023-02-20T06:06:44;99938.16;;;3.04;100.00
66762;BME280;53672;48.176;16.338;2023-02-20T06:11:49;99936.47;;;3.10;100.00
66762;BME280;53672;48.176;16.338;2023-02-20T06:16:50;99939.53;;;3.13;100.00
66762;BME280;53672;48.176;16.338;2023-02-20T06:21:52;99945.69;;;3.14;100.00
66762;BME280;53672;48.176;16.338;2023-02-20T06:26:54;99942.59;;;3.17;100.00
66762;BME280;53672;48.176;16.338;2023-02-20T06:31:57;99939.84;;;3.30;100.00
66762;BME280;53672;48.176;16.338;2023-02-20T06:36:58;99948.19;;;3.40;100.00
66762;BME280;53672;48.176;16.338;2023-02-20T06:42:00;99948.16;;;3.46;100.00
66762;BME280;53672;48.176;16.338;2023-02-20T06:47:01;99952.13;;;3.69;100.00
66762;BME280;53672;48.176;16.338;2023-02-20T06:52:01;99943.84;;;3.77;100.00
66762;BME280;53672;48.176;16.338;2023-02-20T06:57:04;99947.81;;;3.99;100.00
66762;BME280;53672;48.176;16.338;2023-02-20T07:02:04;99957.41;;;4.25;100.00
66762;BME280;53672;48.176;16.338;2023-02-20T07:07:05;99942.28;;;4.43;100.00
66762;BME280;53672;48.176;16.338;2023-02-20T07:12:07;99927.84;;;4.69;100.00
66762;BME280;53672;48.176;16.338;2023-02-20T07:17:08;99909.53;;;6.38;100.00
66762;BME280;53672;48.176;16.338;2023-02-20T07:22:08;99900.94;;;7.73;96.01
66762;BME280;53672;48.176;16.338;2023-02-20T07:27:10;99888.06;;;8.25;91.58
66762;BME280;53672;48.176;16.338;2023-02-20T07:32:11;99888.06;;;8.80;88.04
66762;BME280;53672;48.176;16.338;2023-02-20T07:37:11;99880.28;;;9.05;87.78
66762;BME280;53672;48.176;16.338;2023-02-20T07:42:15;99878.56;;;9.74;85.54
66762;BME280;53672;48.176;16.338;2023-02-20T07:47:16;99867.66;;;10.28;76.39
66762;BME280;53672;48.176;16.338;2023-02-20T07:52:16;99874.00;;;9.80;76.94
66762;BME280;53672;48.176;16.338;2023-02-20T07:57:18;99876.22;;;9.83;77.28
66762;BME280;53672;48.176;16.338;2023-02-20T08:02:19;99875.91;;;9.79;77.68
66762;BME280;53672;48.176;16.338;2023-02-20T08:07:19;99875.78;;;10.01;75.67
66762;BME280;53672;48.176;16.338;2023-02-20T08:12:21;99880.66;;;10.04;76.05
66762;BME280;53672;48.176;16.338;2023-02-20T08:17:22;99894.16;;;10.41;73.27
66762;BME280;53672;48.176;16.338;2023-02-20T08:22:22;99895.28;;;11.02;71.13
66762;BME280;53672;48.176;16.338;2023-02-20T08:27:24;99892.44;;;11.69;69.22
66762;BME280;53672;48.176;16.338;2023-02-20T08:32:25;99885.75;;;13.11;61.53
66762;BME280;53672;48.176;16.338;2023-02-20T08:37:26;99860.44;;;14.38;57.30
66762;BME280;53672;48.176;16.338;2023-02-20T08:42:27;99839.56;;;17.79;45.09
66762;BME280;53672;48.176;16.338;2023-02-20T08:47:28;99814.84;;;16.08;48.81
66762;BME280;53672;48.176;16.338;2023-02-20T08:52:28;99824.28;;;14.66;52.12
66762;BME280;53672;48.176;16.338;2023-02-20T08:57:30;99822.47;;;14.80;51.41
66762;BME280;53672;48.176;16.338;2023-02-20T09:02:31;99824.84;;;18.10;43.70
66762;BME280;53672;48.176;16.338;2023-02-20T09:07:31;99798.97;;;20.53;37.02
66762;BME280;53672;48.176;16.338;2023-02-20T09:12:33;99820.63;;;20.96;35.87
66762;BME280;53672;48.176;16.338;2023-02-20T09:17:34;99818.50;;;19.54;36.88
66762;BME280;53672;48.176;16.338;2023-02-20T09:22:35;99808.59;;;17.03;42.59
66762;BME280;53672;48.176;16.338;2023-02-20T09:27:37;99786.19;;;17.42;41.53
66762;BME280;53672;48.176;16.338;2023-02-20T09:32:37;99820.00;;;16.23;44.63
66762;BME280;53672;48.176;16.338;2023-02-20T09:37:37;99813.03;;;14.78;47.87
66762;BME280;53672;48.176;16.338;2023-02-20T09:42:47;99810.31;;;14.01;50.03
66762;BME280;53672;48.176;16.338;2023-02-20T09:47:59;99798.59;;;13.14;53.02
66762;BME280;53672;48.176;16.338;2023-02-20T09:53:06;99797.47;;;12.66;54.74
66762;BME280;53672;48.176;16.338;2023-02-20T09:58:21;99781.38;;;12.31;55.79
66762;BME280;53672;48.176;16.338;2023-02-20T10:03:29;99771.19;;;12.03;56.04
66762;BME280;53672;48.176;16.338;2023-02-20T10:08:31;99762.56;;;11.91;57.52
66762;BME280;53672;48.176;16.338;2023-02-20T10:13:51;99748.25;;;11.90;58.33
66762;BME280;53672;48.176;16.338;2023-02-20T10:19:02;99742.31;;;11.78;57.83
66762;BME280;53672;48.176;16.338;2023-02-20T10:24:17;99736.63;;;11.95;57.18
66762;BME280;53672;48.176;16.338;2023-02-20T10:29:26;99720.91;;;12.12;55.93
66762;BME280;53672;48.176;16.338;2023-02-20T10:34:31;99717.84;;;12.34;54.97
66762;BME280;53672;48.176;16.338;2023-02-20T10:39:35;99698.94;;;12.29;54.38
66762;BME280;53672;48.176;16.338;2023-02-20T10:44:45;99713.22;;;12.39;53.94
66762;BME280;53672;48.176;16.338;2023-02-20T10:49:52;99699.59;;;12.59;52.69
66762;BME280;53672;48.176;16.338;2023-02-20T10:55:02;99705.06;;;12.93;52.33
66762;BME280;53672;48.176;16.338;2023-02-20T11:00:10;99705.91;;;13.28;50.71
66762;BME280;53672;48.176;16.338;2023-02-20T11:05:16;99688.19;;;13.69;49.69
66762;BME280;53672;48.176;16.338;2023-02-20T11:10:17;99674.81;;;14.01;47.75
66762;BME280;53672;48.176;16.338;2023-02-20T11:15:22;99675.78;;;14.53;47.38
66762;BME280;53672;48.176;16.338;2023-02-20T11:20:41;99657.69;;;14.67;46.29
66762;BME280;53672;48.176;16.338;2023-02-20T11:25:42;99652.47;;;15.54;43.77
66762;BME280;53672;48.176;16.338;2023-02-20T11:30:45;99652.91;;;14.40;45.87
66762;BME280;53672;48.176;16.338;2023-02-20T11:35:49;99631.06;;;13.89;46.93
66762;BME280;53672;48.176;16.338;2023-02-20T11:41:01;99644.59;;;13.89;48.06
66762;BME280;53672;48.176;16.338;2023-02-20T11:46:13;99634.28;;;13.67;47.69
66762;BME280;53672;48.176;16.338;2023-02-20T11:51:30;99636.84;;;13.83;47.85
66762;BME280;53672;48.176;16.338;2023-02-20T11:56:31;99626.84;;;13.78;47.62
66762;BME280;53672;48.176;16.338;2023-02-20T12:01:34;99625.25;;;14.19;47.47
66762;BME280;53672;48.176;16.338;2023-02-20T12:06:41;99610.81;;;14.80;44.33
66762;BME280;53672;48.176;16.338;2023-02-20T12:11:41;99619.41;;;15.01;43.54
66762;BME280;53672;48.176;16.338;2023-02-20T12:17:04;99590.81;;;16.17;42.74
66762;BME280;53672;48.176;16.338;2023-02-20T12:22:14;99609.34;;;16.65;39.11
66762;BME280;53672;48.176;16.338;2023-02-20T12:27:30;99585.31;;;16.45;39.57
66762;BME280;53672;48.176;16.338;2023-02-20T12:32:44;99572.59;;;16.98;40.65
66762;BME280;53672;48.176;16.338;2023-02-20T12:37:54;99556.44;;;17.02;38.63
66762;BME280;53672;48.176;16.338;2023-02-20T12:43:07;99550.09;;;15.90;39.93
66762;BME280;53672;48.176;16.338;2023-02-20T12:48:21;99552.00;;;15.35;42.03
66762;BME280;53672;48.176;16.338;2023-02-20T12:53:47;99537.53;;;15.40;41.50
66762;BME280;53672;48.176;16.338;2023-02-20T12:58:58;99529.88;;;15.42;40.85
66762;BME280;53672;48.176;16.338;2023-02-20T13:04:05;99520.31;;;15.44;40.74
66762;BME280;53672;48.176;16.338;2023-02-20T13:09:17;99517.28;;;15.87;41.10
66762;BME280;53672;48.176;16.338;2023-02-20T13:14:27;99522.84;;;16.40;38.12
66762;BME280;53672;48.176;16.338;2023-02-20T13:19:36;99488.75;;;16.20;38.61
66762;BME280;53672;48.176;16.338;2023-02-20T13:24:39;99477.09;;;16.19;38.00
66762;BME280;53672;48.176;16.338;2023-02-20T13:29:56;99467.81;;;16.20;38.05
66762;BME280;53672;48.176;16.338;2023-02-20T13:35:33;99457.13;;;16.24;38.38
66762;BME280;53672;48.176;16.338;2023-02-20T13:40:37;99456.59;;;16.00;38.03
66762;BME280;53672;48.176;16.338;2023-02-20T13:45:38;99436.41;;;15.43;38.81
66762;BME280;53672;48.176;16.338;2023-02-20T13:50:41;99453.13;;;14.95;40.02
66762;BME280;53672;48.176;16.338;2023-02-20T13:55:41;99446.94;;;14.62;41.07
66762;BME280;53672;48.176;16.338;2023-02-20T14:00:52;99460.88;;;14.42;39.98
66762;BME280;53672;48.176;16.338;2023-02-20T14:06:06;99441.97;;;14.18;40.88
66762;BME280;53672;48.176;16.338;2023-02-20T14:11:10;99464.69;;;14.22;41.08
66762;BME280;53672;48.176;16.338;2023-02-20T14:16:25;99457.59;;;14.27;42.53
66762;BME280;53672;48.176;16.338;2023-02-20T14:21:28;99453.69;;;14.33;41.08
66762;BME280;53672;48.176;16.338;2023-02-20T14:26:30;99443.94;;;14.32;41.60
66762;BME280;53672;48.176;16.338;2023-02-20T14:31:32;99432.38;;;14.45;41.37
66762;BME280;53672;48.176;16.338;2023-02-20T14:37:00;99424.34;;;14.53;41.79
66762;BME280;53672;48.176;16.338;2023-02-20T14:42:04;99432.00;;;14.33;41.84
66762;BME280;53672;48.176;16.338;2023-02-20T14:47:13;99423.97;;;14.09;42.40
66762;BME280;53672;48.176;16.338;2023-02-20T14:52:19;99417.50;;;13.91;45.28
66762;BME280;53672;48.176;16.338;2023-02-20T14:57:20;99407.91;;;13.80;43.57
66762;BME280;53672;48.176;16.338;2023-02-20T15:02:22;99409.75;;;13.66;44.21
66762;BME280;53672;48.176;16.338;2023-02-20T15:07:26;99391.38;;;13.44;44.84
66762;BME280;53672;48.176;16.338;2023-02-20T15:12:31;99383.69;;;13.33;44.39
66762;BME280;53672;48.176;16.338;2023-02-20T15:17:34;99375.19;;;13.20;44.97
66762;BME280;53672;48.176;16.338;2023-02-20T15:22:37;99373.19;;;13.07;45.00
66762;BME280;53672;48.176;16.338;2023-02-20T15:27:38;99371.13;;;12.99;44.97
66762;BME280;53672;48.176;16.338;2023-02-20T15:32:41;99370.16;;;12.90;45.47
66762;BME280;53672;48.176;16.338;2023-02-20T15:37:43;99372.91;;;12.85;48.14
66762;BME280;53672;48.176;16.338;2023-02-20T15:42:44;99377.59;;;12.80;45.94
66762;BME280;53672;48.176;16.338;2023-02-20T15:47:45;99375.50;;;12.71;46.37
66762;BME280;53672;48.176;16.338;2023-02-20T15:52:47;99354.28;;;12.60;46.89
66762;BME280;53672;48.176;16.338;2023-02-20T15:57:49;99347.88;;;12.51;46.75
66762;BME280;53672;48.176;16.338;2023-02-20T16:02:51;99344.13;;;12.47;47.87
66762;BME280;53672;48.176;16.338;2023-02-20T16:07:53;99339.88;;;12.41;47.34
66762;BME280;53672;48.176;16.338;2023-02-20T16:12:56;99333.53;;;12.27;48.83
66762;BME280;53672;48.176;16.338;2023-02-20T16:17:57;99332.59;;;12.12;48.46
66762;BME280;53672;48.176;16.338;2023-02-20T16:23:00;99319.25;;;11.97;49.41
66762;BME280;53672;48.176;16.338;2023-02-20T16:28:02;99322.22;;;11.96;48.91
66762;BME280;53672;48.176;16.338;2023-02-20T16:33:10;99329.06;;;11.88;49.14
66762;BME280;53672;48.176;16.338;2023-02-20T16:38:13;99330.91;;;11.93;48.99
66762;BME280;53672;48.176;16.338;2023-02-20T16:43:14;99326.91;;;11.85;49.36
66762;BME280;53672;48.176;16.338;2023-02-20T16:48:16;99310.53;;;11.77;49.83
66762;BME280;53672;48.176;16.338;2023-02-20T16:53:19;99326.16;;;11.80;50.19
66762;BME280;53672;48.176;16.338;2023-02-20T16:58:21;99322.72;;;11.74;50.40
66762;BME280;53672;48.176;16.338;2023-02-20T17:03:22;99317.00;;;11.76;49.71
66762;BME280;53672;48.176;16.338;2023-02-20T17:08:27;99308.41;;;11.74;49.50
66762;BME280;53672;48.176;16.338;2023-02-20T17:13:27;99306.78;;;11.73;49.16
66762;BME280;53672;48.176;16.338;2023-02-20T17:18:28;99311.59;;;11.81;49.19
66762;BME280;53672;48.176;16.338;2023-02-20T17:23:31;99313.25;;;11.77;49.16
66762;BME280;53672;48.176;16.338;2023-02-20T17:28:31;99295.09;;;11.82;49.19
66762;BME280;53672;48.176;16.338;2023-02-20T17:33:32;99299.38;;;11.88;49.66
66762;BME280;53672;48.176;16.338;2023-02-20T17:38:35;99301.53;;;11.86;48.68
66762;BME280;53672;48.176;16.338;2023-02-20T17:43:37;99288.00;;;11.91;48.61
66762;BME280;53672;48.176;16.338;2023-02-20T17:48:40;99289.88;;;11.91;49.07
66762;BME280;53672;48.176;16.338;2023-02-20T17:53:43;99283.16;;;11.88;49.32
66762;BME280;53672;48.176;16.338;2023-02-20T17:58:43;99285.88;;;11.88;49.36
66762;BME280;53672;48.176;16.338;2023-02-20T18:03:45;99289.69;;;11.82;49.74
66762;BME280;53672;48.176;16.338;2023-02-20T18:08:48;99294.38;;;11.72;50.03
66762;BME280;53672;48.176;16.338;2023-02-20T18:13:49;99292.50;;;11.67;50.54
66762;BME280;53672;48.176;16.338;2023-02-20T18:18:51;99305.88;;;11.82;49.74
66762;BME280;53672;48.176;16.338;2023-02-20T18:23:54;99306.22;;;11.76;50.32
66762;BME280;53672;48.176;16.338;2023-02-20T18:28:56;99296.41;;;11.51;51.21
66762;BME280;53672;48.176;16.338;2023-02-20T18:33:57;99284.03;;;11.45;51.55
66762;BME280;53672;48.176;16.338;2023-02-20T18:39:00;99279.50;;;11.40;51.87
66762;BME280;53672;48.176;16.338;2023-02-20T18:44:01;99265.63;;;11.52;51.74
66762;BME280;53672;48.176;16.338;2023-02-20T18:49:02;99271.50;;;11.59;52.79
66762;BME280;53672;48.176;16.338;2023-02-20T18:54:07;99257.91;;;11.69;51.54
66762;BME280;53672;48.176;16.338;2023-02-20T18:59:08;99261.69;;;11.68;51.44
66762;BME280;53672;48.176;16.338;2023-02-20T19:04:11;99262.78;;;11.72;51.70
66762;BME280;53672;48.176;16.338;2023-02-20T19:09:17;99234.31;;;11.85;51.28
66762;BME280;53672;48.176;16.338;2023-02-20T19:14:20;99247.59;;;11.81;51.64
66762;BME280;53672;48.176;16.338;2023-02-20T19:19:23;99220.28;;;11.83;51.90
66762;BME280;53672;48.176;16.338;2023-02-20T19:24:26;99230.47;;;11.91;51.12
66762;BME280;53672;48.176;16.338;2023-02-20T19:29:27;99239.38;;;11.91;51.15
66762;BME280;53672;48.176;16.338;2023-02-20T19:34:29;99231.75;;;11.98;50.60
66762;BME280;53672;48.176;16.338;2023-02-20T19:39:31;99239.06;;;11.93;51.42
66762;BME280;53672;48.176;16.338;2023-02-20T19:44:32;99223.22;;;11.86;51.09
66762;BME280;53672;48.176;16.338;2023-02-20T19:49:34;99221.59;;;11.85;51.18
66762;BME280;53672;48.176;16.338;2023-02-20T19:54:37;99207.63;;;11.78;51.14
66762;BME280;53672;48.176;16.338;2023-02-20T19:59:38;99206.53;;;11.79;50.84
66762;BME280;53672;48.176;16.338;2023-02-20T20:04:39;99217.91;;;11.76;51.07
66762;BME280;53672;48.176;16.338;2023-02-20T20:09:44;99214.84;;;11.88;50.41
66762;BME280;53672;48.176;16.338;2023-02-20T20:14:45;99229.88;;;11.94;49.62
66762;BME280;53672;48.176;16.338;2023-02-20T20:19:46;99232.50;;;11.75;51.01
66762;BME280;53672;48.176;16.338;2023-02-20T20:24:50;99231.28;;;11.91;49.60
66762;BME280;53672;48.176;16.338;2023-02-20T20:29:51;99219.44;;;11.87;50.32
66762;BME280;53672;48.176;16.338;2023-02-20T20:34:54;99216.53;;;11.79;50.12
66762;BME280;53672;48.176;16.338;2023-02-20T20:39:57;99227.72;;;11.67;50.06
66762;BME280;53672;48.176;16.338;2023-02-20T20:44:58;99218.59;;;11.58;50.73
66762;BME280;53672;48.176;16.338;2023-02-20T20:49:59;99210.66;;;11.72;49.79
66762;BME280;53672;48.176;16.338;2023-02-20T20:55:02;99218.84;;;11.61;50.83
66762;BME280;53672;48.176;16.338;2023-02-20T21:00:06;99220.38;;;11.44;51.02
66762;BME280;53672;48.176;16.338;2023-02-20T21:05:08;99217.81;;;11.57;50.66
66762;BME280;53672;48.176;16.338;2023-02-20T21:10:10;99215.63;;;11.59;50.61
66762;BME280;53672;48.176;16.338;2023-02-20T21:15:14;99204.38;;;11.47;51.10
66762;BME280;53672;48.176;16.338;2023-02-20T21:20:17;99219.84;;;11.42;51.54
66762;BME280;53672;48.176;16.338;2023-02-20T21:25:21;99219.03;;;11.41;51.48
66762;BME280;53672;48.176;16.338;2023-02-20T21:30:23;99213.19;;;11.58;50.45
66762;BME280;53672;48.176;16.338;2023-02-20T21:35:25;99220.94;;;11.69;50.40
66762;BME280;53672;48.176;16.338;2023-02-20T21:40:27;99213.16;;;11.63;50.53
66762;BME280;53672;48.176;16.338;2023-02-20T21:45:28;99199.91;;;11.66;50.43
66762;BME280;53672;48.176;16.338;2023-02-20T21:50:28;99193.72;;;11.61;50.42
66762;BME280;53672;48.176;16.338;2023-02-20T21:55:30;99190.00;;;11.57;50.37
66762;BME280;53672;48.176;16.338;2023-02-20T22:00:31;99193.53;;;11.57;50.31
66762;BME280;53672;48.176;16.338;2023-02-20T22:05:31;99186.78;;;11.55;50.73
66762;BME280;53672;48.176;16.338;2023-02-20T22:10:33;99184.41;;;11.48;51.27
66762;BME280;53672;48.176;16.338;2023-02-20T22:15:34;99189.34;;;11.41;51.11
66762;BME280;53672;48.176;16.338;2023-02-20T22:20:34;99186.13;;;11.39;51.55
66762;BME280;53672;48.176;16.338;2023-02-20T22:25:36;99193.00;;;11.27;52.14
66762;BME280;53672;48.176;16.338;2023-02-20T22:30:37;99182.16;;;11.32;51.73
66762;BME280;53672;48.176;16.338;2023-02-20T22:35:37;99183.00;;;11.27;52.20
66762;BME280;53672;48.176;16.338;2023-02-20T22:40:39;99168.06;;;11.40;51.29
66762;BME280;53672;48.176;16.338;2023-02-20T22:45:40;99176.63;;;11.47;50.87
66762;BME280;53672;48.176;16.338;2023-02-20T22:50:40;99180.19;;;11.37;51.50
66762;BME280;53672;48.176;16.338;2023-02-20T22:55:42;99181.72;;;11.48;50.67
66762;BME280;53672;48.176;16.338;2023-02-20T23:00:42;99191.13;;;11.51;51.11
66762;BME280;53672;48.176;16.338;2023-02-20T23:05:43;99188.31;;;11.61;50.40
66762;BME280;53672;48.176;16.338;2023-02-20T23:10:45;99175.06;;;11.64;50.89
66762;BME280;53672;48.176;16.338;2023-02-20T23:15:45;99188.91;;;11.58;51.36
66762;BME280;53672;48.176;16.338;2023-02-20T23:20:46;99190.00;;;11.57;50.98
66762;BME280;53672;48.176;16.338;2023-02-20T23:25:48;99176.38;;;11.43;51.59
66762;BME280;53672;48.176;16.338;2023-02-20T23:30:49;99181.31;;;11.36;51.77
66762;BME280;53672;48.176;16.338;2023-02-20T23:35:49;99181.19;;;11.17;52.67
66762;BME280;53672;48.176;16.338;2023-02-20T23:40:51;99182.00;;;11.18;52.61
66762;BME280;53672;48.176;16.338;2023-02-20T23:45:52;99182.66;;;11.05;55.68
66762;BME280;53672;48.176;16.338;2023-02-20T23:50:53;99177.56;;;10.98;53.66
66762;BME280;53672;48.176;16.338;2023-02-20T23:55:55;99173.81;;;10.94;53.92
